Weed, California
Current Conditions -  °F | °C
As of 3:56 PM on Wednesday 28 Jan 2015 (Local Time) from KMHS Reporting Station
Clear Clear  
Wind Chill: 55°   Ceiling: Unl
Heat Index: 55°   Visibility: 10mi
Dew Point: 37°   Wind: 5mph
Humidity: 51%   Direction: 320°NW
Pressure: 30.25"   Gusts: NA
Location:  41.42°N, 122.39°W
Report Text: KMHS 282356Z AUTO 32004KT 10SM CLR 13/03 A3025 RMK AO2 SLP264 T01280028 10156 20083 55006
Loading
Personal Weather Stations






























Interactive Weather Map New forecast layout! Learn more

10-Day Weather Forecast

Advertisements
Track Severe Weather on mobile